TimeEDT,TemperatureF,Dew PointF,Humidity,Sea Level PressureIn,VisibilityMPH,Wind Direction,Wind SpeedMPH,Gust SpeedMPH,PrecipitationIn,Events,Conditions,WindDirDegrees,DateUTC
12:53 AM,33.1,21.9,64,30.24,10.0,Calm,Calm,-,N/A,,Clear,0,2013-03-30 04:53:00
1:53 AM,30.9,19.9,64,30.25,10.0,Calm,Calm,-,N/A,,Clear,0,2013-03-30 05:53:00
2:53 AM,30.0,21.0,69,30.24,10.0,Calm,Calm,-,N/A,,Clear,0,2013-03-30 06:53:00
3:53 AM,28.0,19.9,72,30.24,10.0,Calm,Calm,-,N/A,,Clear,0,2013-03-30 07:53:00
4:53 AM,26.1,21.0,81,30.23,10.0,Calm,Calm,-,N/A,,Clear,0,2013-03-30 08:53:00
5:53 AM,25.0,19.9,81,30.23,10.0,Calm,Calm,-,N/A,,Clear,0,2013-03-30 09:53:00
6:53 AM,24.1,19.0,81,30.25,10.0,Calm,Calm,-,N/A,,Clear,0,2013-03-30 10:53:00
7:53 AM,24.1,19.9,84,30.26,10.0,Calm,Calm,-,N/A,,Clear,0,2013-03-30 11:53:00
8:53 AM,32.0,26.1,79,30.25,10.0,Calm,Calm,-,N/A,,Clear,0,2013-03-30 12:53:00
9:53 AM,39.9,25.0,55,30.22,10.0,Calm,Calm,-,N/A,,Clear,0,2013-03-30 13:53:00
10:53 AM,45.0,21.0,39,30.21,10.0,SSW,3.5,-,N/A,,Clear,200,2013-03-30 14:53:00
11:53 AM,48.0,21.0,34,30.21,10.0,SW,8.1,-,N/A,,Clear,230,2013-03-30 15:53:00
12:53 PM,52.0,24.1,34,30.17,10.0,SSW,9.2,-,N/A,,Clear,210,2013-03-30 16:53:00
1:53 PM,53.1,25.0,34,30.14,10.0,SSW,9.2,17.3,N/A,,Clear,210,2013-03-30 17:53:00
2:53 PM,55.0,24.1,30,30.12,10.0,SW,9.2,16.1,N/A,,Clear,230,2013-03-30 18:53:00
3:53 PM,55.0,27.0,34,30.09,10.0,SSW,10.4,23.0,N/A,,Clear,210,2013-03-30 19:53:00
4:53 PM,55.0,28.9,37,30.06,10.0,SW,10.4,18.4,N/A,,Clear,220,2013-03-30 20:53:00
5:53 PM,54.0,28.9,38,30.04,10.0,SSW,9.2,-,N/A,,Clear,210,2013-03-30 21:53:00
6:53 PM,54.0,28.9,38,30.04,10.0,SSW,6.9,-,N/A,,Clear,210,2013-03-30 22:53:00
7:53 PM,50.0,28.9,44,30.02,10.0,SSW,3.5,-,N/A,,Clear,200,2013-03-30 23:53:00
8:53 PM,48.9,30.0,48,30.00,10.0,Calm,Calm,-,N/A,,Clear,0,2013-03-31 00:53:00
9:53 PM,46.9,28.9,50,29.98,10.0,Calm,Calm,-,N/A,,Clear,0,2013-03-31 01:53:00
10:53 PM,48.0,28.9,48,29.96,10.0,SSE,3.5,-,N/A,,Clear,150,2013-03-31 02:53:00
11:53 PM,44.1,30.0,58,29.95,10.0,Calm,Calm,-,N/A,,Clear,0,2013-03-31 03:53:00